sensor_id;sensor_type;location;lat;lon;timestamp;P1;durP1;ratioP1;P2;durP2;ratioP2
28766;SDS011;15921;52.034;20.650;2023-02-01T00:01:12;27.20;;;11.43;;
28766;SDS011;15921;52.034;20.650;2023-02-01T00:03:37;19.20;;;9.88;;
28766;SDS011;15921;52.034;20.650;2023-02-01T00:06:03;22.13;;;10.48;;
28766;SDS011;15921;52.034;20.650;2023-02-01T00:08:29;22.73;;;12.38;;
28766;SDS011;15921;52.034;20.650;2023-02-01T00:11:02;24.63;;;11.57;;
28766;SDS011;15921;52.034;20.650;2023-02-01T00:13:32;23.55;;;11.50;;
28766;SDS011;15921;52.034;20.650;2023-02-01T00:16:03;22.77;;;10.65;;
28766;SDS011;15921;52.034;20.650;2023-02-01T00:18:29;22.42;;;10.55;;
28766;SDS011;15921;52.034;20.650;2023-02-01T00:20:54;15.02;;;8.57;;
28766;SDS011;15921;52.034;20.650;2023-02-01T00:23:20;14.40;;;7.63;;
28766;SDS011;15921;52.034;20.650;2023-02-01T00:25:45;16.20;;;7.15;;
28766;SDS011;15921;52.034;20.650;2023-02-01T00:28:11;15.55;;;7.82;;
28766;SDS011;15921;52.034;20.650;2023-02-01T00:30:38;16.15;;;8.20;;
28766;SDS011;15921;52.034;20.650;2023-02-01T00:33:03;14.88;;;7.78;;
28766;SDS011;15921;52.034;20.650;2023-02-01T00:35:29;19.52;;;7.45;;
28766;SDS011;15921;52.034;20.650;2023-02-01T00:37:55;15.77;;;7.43;;
28766;SDS011;15921;52.034;20.650;2023-02-01T00:40:23;16.95;;;8.10;;
28766;SDS011;15921;52.034;20.650;2023-02-01T00:42:49;19.42;;;9.00;;
28766;SDS011;15921;52.034;20.650;2023-02-01T00:45:15;18.63;;;8.40;;
28766;SDS011;15921;52.034;20.650;2023-02-01T00:47:40;20.48;;;8.63;;
28766;SDS011;15921;52.034;20.650;2023-02-01T00:50:06;17.02;;;7.88;;
28766;SDS011;15921;52.034;20.650;2023-02-01T00:52:32;15.85;;;6.65;;
28766;SDS011;15921;52.034;20.650;2023-02-01T00:54:58;15.15;;;6.15;;
28766;SDS011;15921;52.034;20.650;2023-02-01T00:57:24;12.15;;;5.78;;
28766;SDS011;15921;52.034;20.650;2023-02-01T00:59:49;14.93;;;5.45;;
28766;SDS011;15921;52.034;20.650;2023-02-01T01:02:15;8.38;;;4.22;;
28766;SDS011;15921;52.034;20.650;2023-02-01T01:04:41;11.68;;;4.05;;
28766;SDS011;15921;52.034;20.650;2023-02-01T01:07:06;9.25;;;4.25;;
28766;SDS011;15921;52.034;20.650;2023-02-01T01:09:32;16.75;;;4.22;;
28766;SDS011;15921;52.034;20.650;2023-02-01T01:11:58;16.48;;;4.80;;
28766;SDS011;15921;52.034;20.650;2023-02-01T01:14:27;9.10;;;3.08;;
28766;SDS011;15921;52.034;20.650;2023-02-01T01:16:53;12.45;;;3.67;;
28766;SDS011;15921;52.034;20.650;2023-02-01T01:19:19;8.07;;;2.90;;
28766;SDS011;15921;52.034;20.650;2023-02-01T01:21:45;18.30;;;3.63;;
28766;SDS011;15921;52.034;20.650;2023-02-01T01:24:10;13.95;;;3.55;;
28766;SDS011;15921;52.034;20.650;2023-02-01T01:26:36;13.93;;;2.90;;
28766;SDS011;15921;52.034;20.650;2023-02-01T01:29:02;8.80;;;3.40;;
28766;SDS011;15921;52.034;20.650;2023-02-01T01:31:29;20.98;;;3.60;;
28766;SDS011;15921;52.034;20.650;2023-02-01T01:33:56;11.43;;;2.60;;
28766;SDS011;15921;52.034;20.650;2023-02-01T01:36:23;9.38;;;2.72;;
28766;SDS011;15921;52.034;20.650;2023-02-01T01:38:50;17.77;;;3.63;;
28766;SDS011;15921;52.034;20.650;2023-02-01T01:41:18;14.38;;;3.35;;
28766;SDS011;15921;52.034;20.650;2023-02-01T01:43:56;17.25;;;3.15;;
28766;SDS011;15921;52.034;20.650;2023-02-01T01:46:27;16.98;;;3.30;;
28766;SDS011;15921;52.034;20.650;2023-02-01T01:49:02;17.27;;;3.90;;
28766;SDS011;15921;52.034;20.650;2023-02-01T01:51:33;13.35;;;3.10;;
28766;SDS011;15921;52.034;20.650;2023-02-01T01:54:06;12.50;;;3.42;;
28766;SDS011;15921;52.034;20.650;2023-02-01T01:56:37;6.13;;;2.63;;
28766;SDS011;15921;52.034;20.650;2023-02-01T01:59:03;6.13;;;2.50;;
28766;SDS011;15921;52.034;20.650;2023-02-01T02:01:30;11.65;;;2.88;;
28766;SDS011;15921;52.034;20.650;2023-02-01T02:03:56;13.40;;;3.42;;
28766;SDS011;15921;52.034;20.650;2023-02-01T02:06:27;16.45;;;3.33;;
28766;SDS011;15921;52.034;20.650;2023-02-01T02:09:05;16.70;;;3.60;;
28766;SDS011;15921;52.034;20.650;2023-02-01T02:11:31;14.27;;;3.35;;
28766;SDS011;15921;52.034;20.650;2023-02-01T02:13:57;11.38;;;3.17;;
28766;SDS011;15921;52.034;20.650;2023-02-01T02:19:10;13.57;;;2.70;;
28766;SDS011;15921;52.034;20.650;2023-02-01T02:27:42;9.25;;;2.90;;
28766;SDS011;15921;52.034;20.650;2023-02-01T02:41:19;11.25;;;2.50;;
28766;SDS011;15921;52.034;20.650;2023-02-01T02:44:19;21.40;;;2.65;;
28766;SDS011;15921;52.034;20.650;2023-02-01T02:47:15;16.00;;;3.95;;
28766;SDS011;15921;52.034;20.650;2023-02-01T02:49:52;14.48;;;2.65;;
28766;SDS011;15921;52.034;20.650;2023-02-01T02:52:39;22.08;;;3.28;;
28766;SDS011;15921;52.034;20.650;2023-02-01T02:55:31;17.67;;;2.80;;
28766;SDS011;15921;52.034;20.650;2023-02-01T02:58:02;17.58;;;3.58;;
28766;SDS011;15921;52.034;20.650;2023-02-01T03:00:48;17.67;;;4.40;;
28766;SDS011;15921;52.034;20.650;2023-02-01T03:03:36;15.95;;;2.80;;
28766;SDS011;15921;52.034;20.650;2023-02-01T03:06:23;17.42;;;3.50;;
28766;SDS011;15921;52.034;20.650;2023-02-01T03:08:50;19.77;;;3.70;;
28766;SDS011;15921;52.034;20.650;2023-02-01T03:11:21;13.70;;;3.30;;
28766;SDS011;15921;52.034;20.650;2023-02-01T03:14:09;17.25;;;2.97;;
28766;SDS011;15921;52.034;20.650;2023-02-01T03:16:49;14.90;;;3.03;;
28766;SDS011;15921;52.034;20.650;2023-02-01T03:22:00;16.37;;;3.30;;
28766;SDS011;15921;52.034;20.650;2023-02-01T03:27:23;18.10;;;2.97;;
28766;SDS011;15921;52.034;20.650;2023-02-01T03:32:30;12.77;;;2.83;;
28766;SDS011;15921;52.034;20.650;2023-02-01T03:35:16;17.48;;;2.70;;
28766;SDS011;15921;52.034;20.650;2023-02-01T03:37:44;10.98;;;3.03;;
28766;SDS011;15921;52.034;20.650;2023-02-01T03:40:10;9.93;;;2.78;;
28766;SDS011;15921;52.034;20.650;2023-02-01T03:42:39;17.70;;;3.60;;
28766;SDS011;15921;52.034;20.650;2023-02-01T03:45:22;15.13;;;2.67;;
28766;SDS011;15921;52.034;20.650;2023-02-01T03:47:50;20.10;;;3.10;;
28766;SDS011;15921;52.034;20.650;2023-02-01T03:50:20;12.18;;;2.60;;
28766;SDS011;15921;52.034;20.650;2023-02-01T03:52:51;24.45;;;2.72;;
28766;SDS011;15921;52.034;20.650;2023-02-01T03:55:33;13.45;;;2.53;;
28766;SDS011;15921;52.034;20.650;2023-02-01T03:58:03;11.52;;;2.17;;
28766;SDS011;15921;52.034;20.650;2023-02-01T04:00:34;16.73;;;2.50;;
28766;SDS011;15921;52.034;20.650;2023-02-01T04:03:00;17.17;;;2.97;;
28766;SDS011;15921;52.034;20.650;2023-02-01T04:05:36;16.17;;;2.83;;
28766;SDS011;15921;52.034;20.650;2023-02-01T04:08:02;16.55;;;2.80;;
28766;SDS011;15921;52.034;20.650;2023-02-01T04:10:30;11.45;;;2.78;;
28766;SDS011;15921;52.034;20.650;2023-02-01T04:12:55;18.52;;;3.03;;
28766;SDS011;15921;52.034;20.650;2023-02-01T04:15:21;19.05;;;3.10;;
28766;SDS011;15921;52.034;20.650;2023-02-01T04:17:47;19.35;;;2.83;;
28766;SDS011;15921;52.034;20.650;2023-02-01T04:20:12;14.38;;;2.33;;
28766;SDS011;15921;52.034;20.650;2023-02-01T04:22:38;20.05;;;3.70;;
28766;SDS011;15921;52.034;20.650;2023-02-01T04:25:04;16.60;;;2.22;;
28766;SDS011;15921;52.034;20.650;2023-02-01T04:27:30;14.13;;;3.00;;
28766;SDS011;15921;52.034;20.650;2023-02-01T04:29:56;12.27;;;2.50;;
28766;SDS011;15921;52.034;20.650;2023-02-01T04:32:22;21.17;;;3.78;;
28766;SDS011;15921;52.034;20.650;2023-02-01T04:34:48;15.00;;;2.35;;
28766;SDS011;15921;52.034;20.650;2023-02-01T04:37:13;23.50;;;2.83;;
28766;SDS011;15921;52.034;20.650;2023-02-01T04:39:39;12.43;;;3.03;;
28766;SDS011;15921;52.034;20.650;2023-02-01T04:42:05;12.27;;;2.35;;
28766;SDS011;15921;52.034;20.650;2023-02-01T04:44:30;17.85;;;2.47;;
28766;SDS011;15921;52.034;20.650;2023-02-01T04:46:56;11.45;;;2.22;;
28766;SDS011;15921;52.034;20.650;2023-02-01T04:49:22;14.23;;;3.13;;
28766;SDS011;15921;52.034;20.650;2023-02-01T04:51:50;18.38;;;2.75;;
28766;SDS011;15921;52.034;20.650;2023-02-01T04:54:16;22.10;;;2.88;;
28766;SDS011;15921;52.034;20.650;2023-02-01T04:56:41;15.18;;;2.72;;
28766;SDS011;15921;52.034;20.650;2023-02-01T04:59:07;13.70;;;2.50;;
28766;SDS011;15921;52.034;20.650;2023-02-01T05:01:36;20.17;;;2.72;;
28766;SDS011;15921;52.034;20.650;2023-02-01T05:04:02;17.35;;;2.90;;
28766;SDS011;15921;52.034;20.650;2023-02-01T05:06:28;17.08;;;2.45;;
28766;SDS011;15921;52.034;20.650;2023-02-01T05:08:53;15.25;;;2.53;;
28766;SDS011;15921;52.034;20.650;2023-02-01T05:11:19;19.60;;;3.65;;
28766;SDS011;15921;52.034;20.650;2023-02-01T05:14:03;21.63;;;3.00;;
28766;SDS011;15921;52.034;20.650;2023-02-01T05:16:29;15.48;;;2.70;;
28766;SDS011;15921;52.034;20.650;2023-02-01T05:18:55;15.70;;;2.53;;
28766;SDS011;15921;52.034;20.650;2023-02-01T05:21:20;21.30;;;3.72;;
28766;SDS011;15921;52.034;20.650;2023-02-01T05:23:46;15.05;;;3.00;;
28766;SDS011;15921;52.034;20.650;2023-02-01T05:26:31;22.65;;;3.08;;
28766;SDS011;15921;52.034;20.650;2023-02-01T05:28:57;17.95;;;3.13;;
28766;SDS011;15921;52.034;20.650;2023-02-01T05:31:23;16.58;;;3.30;;
28766;SDS011;15921;52.034;20.650;2023-02-01T05:33:49;14.20;;;2.92;;
28766;SDS011;15921;52.034;20.650;2023-02-01T05:36:15;18.65;;;3.38;;
28766;SDS011;15921;52.034;20.650;2023-02-01T05:38:40;17.52;;;3.63;;
28766;SDS011;15921;52.034;20.650;2023-02-01T05:41:06;20.55;;;2.80;;
28766;SDS011;15921;52.034;20.650;2023-02-01T05:43:32;16.80;;;3.35;;
28766;SDS011;15921;52.034;20.650;2023-02-01T05:45:58;17.08;;;3.08;;
28766;SDS011;15921;52.034;20.650;2023-02-01T05:48:23;15.45;;;3.08;;
28766;SDS011;15921;52.034;20.650;2023-02-01T05:50:49;20.45;;;3.42;;
28766;SDS011;15921;52.034;20.650;2023-02-01T05:53:15;14.45;;;2.47;;
28766;SDS011;15921;52.034;20.650;2023-02-01T05:55:41;19.00;;;3.42;;
28766;SDS011;15921;52.034;20.650;2023-02-01T05:58:07;13.13;;;2.47;;
28766;SDS011;15921;52.034;20.650;2023-02-01T06:00:33;15.05;;;3.00;;
28766;SDS011;15921;52.034;20.650;2023-02-01T06:02:59;19.48;;;3.58;;
28766;SDS011;15921;52.034;20.650;2023-02-01T06:05:24;22.90;;;3.22;;
28766;SDS011;15921;52.034;20.650;2023-02-01T06:07:50;15.35;;;2.83;;
28766;SDS011;15921;52.034;20.650;2023-02-01T06:10:16;13.75;;;2.60;;
28766;SDS011;15921;52.034;20.650;2023-02-01T06:12:43;12.02;;;2.65;;
28766;SDS011;15921;52.034;20.650;2023-02-01T06:15:10;15.27;;;2.78;;
28766;SDS011;15921;52.034;20.650;2023-02-01T06:17:40;13.73;;;2.60;;
28766;SDS011;15921;52.034;20.650;2023-02-01T06:20:08;10.27;;;2.42;;
28766;SDS011;15921;52.034;20.650;2023-02-01T06:22:34;11.60;;;2.53;;
28766;SDS011;15921;52.034;20.650;2023-02-01T06:25:01;18.10;;;2.92;;
28766;SDS011;15921;52.034;20.650;2023-02-01T06:27:28;16.10;;;3.10;;
28766;SDS011;15921;52.034;20.650;2023-02-01T06:29:53;13.80;;;2.92;;
28766;SDS011;15921;52.034;20.650;2023-02-01T06:32:20;15.25;;;2.75;;
28766;SDS011;15921;52.034;20.650;2023-02-01T06:34:46;11.32;;;2.83;;
28766;SDS011;15921;52.034;20.650;2023-02-01T06:37:11;21.40;;;3.25;;
28766;SDS011;15921;52.034;20.650;2023-02-01T06:39:37;15.32;;;2.85;;
28766;SDS011;15921;52.034;20.650;2023-02-01T06:42:03;14.23;;;2.88;;
28766;SDS011;15921;52.034;20.650;2023-02-01T06:44:29;18.75;;;2.60;;
28766;SDS011;15921;52.034;20.650;2023-02-01T06:46:55;10.48;;;2.55;;
28766;SDS011;15921;52.034;20.650;2023-02-01T06:49:20;17.23;;;2.83;;
28766;SDS011;15921;52.034;20.650;2023-02-01T06:51:46;9.05;;;2.35;;
28766;SDS011;15921;52.034;20.650;2023-02-01T06:54:12;18.92;;;3.13;;
28766;SDS011;15921;52.034;20.650;2023-02-01T06:56:38;18.92;;;3.30;;
28766;SDS011;15921;52.034;20.650;2023-02-01T06:59:04;17.67;;;2.80;;
28766;SDS011;15921;52.034;20.650;2023-02-01T07:01:31;15.85;;;2.50;;
28766;SDS011;15921;52.034;20.650;2023-02-01T07:03:57;19.70;;;3.33;;
28766;SDS011;15921;52.034;20.650;2023-02-01T07:06:22;21.70;;;3.47;;
28766;SDS011;15921;52.034;20.650;2023-02-01T07:08:48;25.65;;;2.83;;
28766;SDS011;15921;52.034;20.650;2023-02-01T07:11:15;14.93;;;2.78;;
28766;SDS011;15921;52.034;20.650;2023-02-01T07:13:42;14.95;;;3.33;;
28766;SDS011;15921;52.034;20.650;2023-02-01T07:16:11;16.52;;;2.88;;
28766;SDS011;15921;52.034;20.650;2023-02-01T07:18:39;21.15;;;2.88;;
28766;SDS011;15921;52.034;20.650;2023-02-01T07:21:05;19.30;;;3.17;;
28766;SDS011;15921;52.034;20.650;2023-02-01T07:23:31;18.33;;;2.83;;
28766;SDS011;15921;52.034;20.650;2023-02-01T07:25:58;16.30;;;3.17;;
28766;SDS011;15921;52.034;20.650;2023-02-01T07:28:27;18.33;;;3.45;;
28766;SDS011;15921;52.034;20.650;2023-02-01T07:30:54;13.77;;;3.05;;
28766;SDS011;15921;52.034;20.650;2023-02-01T07:33:26;17.88;;;3.72;;
28766;SDS011;15921;52.034;20.650;2023-02-01T07:35:53;15.20;;;3.60;;
28766;SDS011;15921;52.034;20.650;2023-02-01T07:38:19;19.45;;;3.78;;
28766;SDS011;15921;52.034;20.650;2023-02-01T07:40:46;25.50;;;4.70;;
28766;SDS011;15921;52.034;20.650;2023-02-01T07:43:12;19.60;;;3.78;;
28766;SDS011;15921;52.034;20.650;2023-02-01T07:45:38;16.10;;;3.13;;
28766;SDS011;15921;52.034;20.650;2023-02-01T07:48:04;21.70;;;3.60;;
28766;SDS011;15921;52.034;20.650;2023-02-01T07:50:29;23.73;;;4.00;;
28766;SDS011;15921;52.034;20.650;2023-02-01T07:52:58;21.85;;;3.20;;
28766;SDS011;15921;52.034;20.650;2023-02-01T07:55:25;20.33;;;4.13;;
28766;SDS011;15921;52.034;20.650;2023-02-01T07:57:51;14.18;;;3.00;;
28766;SDS011;15921;52.034;20.650;2023-02-01T08:00:17;16.63;;;2.85;;
28766;SDS011;15921;52.034;20.650;2023-02-01T08:03:03;15.10;;;3.40;;
28766;SDS011;15921;52.034;20.650;2023-02-01T08:05:29;19.25;;;3.53;;
28766;SDS011;15921;52.034;20.650;2023-02-01T08:07:54;16.77;;;3.47;;
28766;SDS011;15921;52.034;20.650;2023-02-01T08:10:20;16.67;;;3.17;;
28766;SDS011;15921;52.034;20.650;2023-02-01T08:12:46;15.82;;;2.97;;
28766;SDS011;15921;52.034;20.650;2023-02-01T08:15:13;14.85;;;3.72;;
28766;SDS011;15921;52.034;20.650;2023-02-01T08:17:40;22.15;;;3.60;;
28766;SDS011;15921;52.034;20.650;2023-02-01T08:20:16;17.77;;;3.40;;
28766;SDS011;15921;52.034;20.650;2023-02-01T08:22:42;17.92;;;2.70;;
28766;SDS011;15921;52.034;20.650;2023-02-01T08:25:08;14.30;;;2.60;;
28766;SDS011;15921;52.034;20.650;2023-02-01T08:27:35;10.98;;;2.60;;
28766;SDS011;15921;52.034;20.650;2023-02-01T08:30:01;19.05;;;3.20;;
28766;SDS011;15921;52.034;20.650;2023-02-01T08:32:28;17.40;;;3.15;;
28766;SDS011;15921;52.034;20.650;2023-02-01T08:34:54;18.05;;;3.03;;
28766;SDS011;15921;52.034;20.650;2023-02-01T08:37:19;18.15;;;3.75;;
28766;SDS011;15921;52.034;20.650;2023-02-01T08:39:45;21.30;;;3.13;;
28766;SDS011;15921;52.034;20.650;2023-02-01T08:42:12;25.90;;;3.30;;
28766;SDS011;15921;52.034;20.650;2023-02-01T08:44:56;14.00;;;3.22;;
28766;SDS011;15921;52.034;20.650;2023-02-01T08:47:22;19.38;;;3.25;;
28766;SDS011;15921;52.034;20.650;2023-02-01T08:49:48;17.42;;;3.22;;
28766;SDS011;15921;52.034;20.650;2023-02-01T08:52:14;16.45;;;3.13;;
28766;SDS011;15921;52.034;20.650;2023-02-01T08:54:39;15.27;;;3.40;;
28766;SDS011;15921;52.034;20.650;2023-02-01T08:57:06;16.55;;;3.17;;
28766;SDS011;15921;52.034;20.650;2023-02-01T08:59:32;21.45;;;2.90;;
28766;SDS011;15921;52.034;20.650;2023-02-01T09:01:58;13.80;;;3.65;;
28766;SDS011;15921;52.034;20.650;2023-02-01T09:04:24;11.88;;;3.20;;
28766;SDS011;15921;52.034;20.650;2023-02-01T09:06:49;17.60;;;3.45;;
28766;SDS011;15921;52.034;20.650;2023-02-01T09:09:15;21.90;;;4.00;;
28766;SDS011;15921;52.034;20.650;2023-02-01T09:11:41;25.52;;;3.67;;
28766;SDS011;15921;52.034;20.650;2023-02-01T09:14:06;25.52;;;3.40;;
28766;SDS011;15921;52.034;20.650;2023-02-01T09:16:32;17.75;;;2.97;;
28766;SDS011;15921;52.034;20.650;2023-02-01T09:18:58;14.23;;;3.38;;
28766;SDS011;15921;52.034;20.650;2023-02-01T09:21:23;18.63;;;3.72;;
28766;SDS011;15921;52.034;20.650;2023-02-01T09:23:52;17.13;;;3.28;;
28766;SDS011;15921;52.034;20.650;2023-02-01T09:26:18;27.98;;;3.78;;
28766;SDS011;15921;52.034;20.650;2023-02-01T09:28:43;24.17;;;3.95;;
28766;SDS011;15921;52.034;20.650;2023-02-01T09:31:09;16.23;;;3.28;;
28766;SDS011;15921;52.034;20.650;2023-02-01T09:33:35;14.98;;;3.70;;
28766;SDS011;15921;52.034;20.650;2023-02-01T09:36:02;18.83;;;3.65;;
28766;SDS011;15921;52.034;20.650;2023-02-01T09:38:29;21.10;;;3.22;;
28766;SDS011;15921;52.034;20.650;2023-02-01T09:40:56;14.10;;;4.00;;
28766;SDS011;15921;52.034;20.650;2023-02-01T09:43:44;14.88;;;3.55;;
28766;SDS011;15921;52.034;20.650;2023-02-01T09:46:26;13.38;;;3.35;;
28766;SDS011;15921;52.034;20.650;2023-02-01T09:48:54;17.65;;;3.65;;
28766;SDS011;15921;52.034;20.650;2023-02-01T09:51:27;15.95;;;3.42;;
28766;SDS011;15921;52.034;20.650;2023-02-01T09:54:04;17.42;;;3.67;;
28766;SDS011;15921;52.034;20.650;2023-02-01T09:56:35;14.68;;;3.25;;
28766;SDS011;15921;52.034;20.650;2023-02-01T10:36:50;17.83;;;4.47;;
28766;SDS011;15921;52.034;20.650;2023-02-01T10:39:24;15.18;;;3.60;;
28766;SDS011;15921;52.034;20.650;2023-02-01T10:41:50;17.52;;;3.95;;
28766;SDS011;15921;52.034;20.650;2023-02-01T10:44:18;16.63;;;4.03;;
28766;SDS011;15921;52.034;20.650;2023-02-01T10:46:47;19.65;;;3.92;;
28766;SDS011;15921;52.034;20.650;2023-02-01T10:49:37;15.60;;;3.47;;
28766;SDS011;15921;52.034;20.650;2023-02-01T10:54:54;18.80;;;4.60;;
28766;SDS011;15921;52.034;20.650;2023-02-01T10:57:21;12.38;;;3.28;;
28766;SDS011;15921;52.034;20.650;2023-02-01T10:59:50;17.75;;;3.47;;
28766;SDS011;15921;52.034;20.650;2023-02-01T11:02:24;18.15;;;3.85;;
28766;SDS011;15921;52.034;20.650;2023-02-01T11:04:58;21.58;;;3.75;;
28766;SDS011;15921;52.034;20.650;2023-02-01T11:07:30;20.80;;;4.55;;
28766;SDS011;15921;52.034;20.650;2023-02-01T11:09:57;19.45;;;4.70;;
28766;SDS011;15921;52.034;20.650;2023-02-01T11:17:40;13.82;;;3.80;;
28766;SDS011;15921;52.034;20.650;2023-02-01T11:20:13;17.55;;;4.25;;
28766;SDS011;15921;52.034;20.650;2023-02-01T11:23:02;15.63;;;4.05;;
28766;SDS011;15921;52.034;20.650;2023-02-01T11:25:28;15.23;;;3.42;;
28766;SDS011;15921;52.034;20.650;2023-02-01T11:27:54;19.73;;;5.00;;
28766;SDS011;15921;52.034;20.650;2023-02-01T11:30:30;16.88;;;4.63;;
28766;SDS011;15921;52.034;20.650;2023-02-01T11:33:03;19.67;;;4.83;;
28766;SDS011;15921;52.034;20.650;2023-02-01T11:35:30;15.55;;;3.58;;
28766;SDS011;15921;52.034;20.650;2023-02-01T11:37:58;21.77;;;3.78;;
28766;SDS011;15921;52.034;20.650;2023-02-01T11:40:26;21.70;;;4.60;;
28766;SDS011;15921;52.034;20.650;2023-02-01T11:43:28;24.00;;;4.40;;
28766;SDS011;15921;52.034;20.650;2023-02-01T11:48:25;17.58;;;4.30;;
28766;SDS011;15921;52.034;20.650;2023-02-01T12:12:26;26.13;;;4.25;;
28766;SDS011;15921;52.034;20.650;2023-02-01T12:20:59;20.90;;;5.05;;
28766;SDS011;15921;52.034;20.650;2023-02-01T12:23:37;21.20;;;5.15;;
28766;SDS011;15921;52.034;20.650;2023-02-01T12:26:26;25.05;;;5.90;;
28766;SDS011;15921;52.034;20.650;2023-02-01T12:29:15;21.65;;;6.05;;
28766;SDS011;15921;52.034;20.650;2023-02-01T12:37:20;17.50;;;5.00;;
28766;SDS011;15921;52.034;20.650;2023-02-01T12:39:52;21.03;;;5.43;;
28766;SDS011;15921;52.034;20.650;2023-02-01T12:45:26;19.60;;;5.13;;
28766;SDS011;15921;52.034;20.650;2023-02-01T12:48:16;22.17;;;5.03;;
28766;SDS011;15921;52.034;20.650;2023-02-01T12:50:52;23.25;;;5.72;;
28766;SDS011;15921;52.034;20.650;2023-02-01T12:53:28;31.38;;;5.78;;
28766;SDS011;15921;52.034;20.650;2023-02-01T12:56:00;26.35;;;6.10;;
28766;SDS011;15921;52.034;20.650;2023-02-01T12:58:35;28.90;;;6.35;;
28766;SDS011;15921;52.034;20.650;2023-02-01T13:01:34;30.83;;;5.90;;
28766;SDS011;15921;52.034;20.650;2023-02-01T13:04:15;23.48;;;6.63;;
28766;SDS011;15921;52.034;20.650;2023-02-01T13:06:54;19.58;;;5.68;;
28766;SDS011;15921;52.034;20.650;2023-02-01T13:09:49;25.33;;;5.75;;
28766;SDS011;15921;52.034;20.650;2023-02-01T13:12:26;19.63;;;4.68;;
28766;SDS011;15921;52.034;20.650;2023-02-01T13:15:00;30.45;;;5.07;;
28766;SDS011;15921;52.034;20.650;2023-02-01T13:17:58;27.00;;;6.18;;
28766;SDS011;15921;52.034;20.650;2023-02-01T13:20:29;24.95;;;5.40;;
28766;SDS011;15921;52.034;20.650;2023-02-01T13:23:02;18.23;;;5.40;;
28766;SDS011;15921;52.034;20.650;2023-02-01T13:25:33;15.15;;;4.95;;
28766;SDS011;15921;52.034;20.650;2023-02-01T13:28:02;20.33;;;5.05;;
28766;SDS011;15921;52.034;20.650;2023-02-01T13:30:51;12.15;;;4.63;;
28766;SDS011;15921;52.034;20.650;2023-02-01T13:33:47;16.73;;;5.40;;
28766;SDS011;15921;52.034;20.650;2023-02-01T13:36:46;23.08;;;4.80;;
28766;SDS011;15921;52.034;20.650;2023-02-01T13:42:19;19.52;;;5.00;;
28766;SDS011;15921;52.034;20.650;2023-02-01T13:47:27;14.85;;;3.95;;
28766;SDS011;15921;52.034;20.650;2023-02-01T13:49:57;17.30;;;4.57;;
28766;SDS011;15921;52.034;20.650;2023-02-01T13:52:31;9.90;;;3.65;;
28766;SDS011;15921;52.034;20.650;2023-02-01T13:57:46;7.57;;;3.28;;
28766;SDS011;15921;52.034;20.650;2023-02-01T14:13:32;10.73;;;2.97;;
28766;SDS011;15921;52.034;20.650;2023-02-01T14:23:41;7.68;;;3.10;;
28766;SDS011;15921;52.034;20.650;2023-02-01T14:26:16;11.90;;;2.90;;
28766;SDS011;15921;52.034;20.650;2023-02-01T14:29:00;8.57;;;2.88;;
28766;SDS011;15921;52.034;20.650;2023-02-01T14:37:33;11.10;;;3.63;;
28766;SDS011;15921;52.034;20.650;2023-02-01T15:03:50;15.15;;;4.30;;
28766;SDS011;15921;52.034;20.650;2023-02-01T15:06:22;15.00;;;4.70;;
28766;SDS011;15921;52.034;20.650;2023-02-01T15:08:49;8.80;;;3.70;;
28766;SDS011;15921;52.034;20.650;2023-02-01T15:11:20;9.88;;;3.90;;
28766;SDS011;15921;52.034;20.650;2023-02-01T15:13:49;15.27;;;4.20;;
28766;SDS011;15921;52.034;20.650;2023-02-01T15:16:19;11.98;;;4.20;;
28766;SDS011;15921;52.034;20.650;2023-02-01T15:18:47;9.55;;;3.78;;
28766;SDS011;15921;52.034;20.650;2023-02-01T15:23:47;12.50;;;4.55;;
28766;SDS011;15921;52.034;20.650;2023-02-01T15:26:26;12.85;;;4.63;;
28766;SDS011;15921;52.034;20.650;2023-02-01T15:28:53;16.95;;;5.10;;
28766;SDS011;15921;52.034;20.650;2023-02-01T15:31:34;13.43;;;4.75;;
28766;SDS011;15921;52.034;20.650;2023-02-01T15:34:02;12.63;;;4.50;;
28766;SDS011;15921;52.034;20.650;2023-02-01T15:36:28;10.95;;;4.90;;
28766;SDS011;15921;52.034;20.650;2023-02-01T15:41:47;8.65;;;3.85;;
28766;SDS011;15921;52.034;20.650;2023-02-01T15:46:52;12.38;;;4.45;;
28766;SDS011;15921;52.034;20.650;2023-02-01T15:49:20;12.00;;;5.88;;
28766;SDS011;15921;52.034;20.650;2023-02-01T15:51:56;12.90;;;4.65;;
28766;SDS011;15921;52.034;20.650;2023-02-01T15:54:25;11.25;;;4.30;;
28766;SDS011;15921;52.034;20.650;2023-02-01T15:57:05;15.93;;;4.75;;
28766;SDS011;15921;52.034;20.650;2023-02-01T15:59:34;16.55;;;5.85;;
28766;SDS011;15921;52.034;20.650;2023-02-01T16:02:25;11.65;;;5.10;;
28766;SDS011;15921;52.034;20.650;2023-02-01T16:04:58;11.82;;;5.10;;
28766;SDS011;15921;52.034;20.650;2023-02-01T16:07:25;10.05;;;5.03;;
28766;SDS011;15921;52.034;20.650;2023-02-01T16:09:54;12.15;;;4.90;;
28766;SDS011;15921;52.034;20.650;2023-02-01T16:12:45;13.90;;;4.82;;
28766;SDS011;15921;52.034;20.650;2023-02-01T16:15:12;13.80;;;5.65;;
28766;SDS011;15921;52.034;20.650;2023-02-01T16:17:38;12.43;;;5.55;;
28766;SDS011;15921;52.034;20.650;2023-02-01T16:20:04;16.10;;;5.78;;
28766;SDS011;15921;52.034;20.650;2023-02-01T16:22:30;12.43;;;5.60;;
28766;SDS011;15921;52.034;20.650;2023-02-01T16:24:55;11.23;;;5.25;;
28766;SDS011;15921;52.034;20.650;2023-02-01T16:27:22;11.00;;;5.38;;
28766;SDS011;15921;52.034;20.650;2023-02-01T16:29:48;15.40;;;5.55;;
28766;SDS011;15921;52.034;20.650;2023-02-01T16:32:18;15.88;;;5.25;;
28766;SDS011;15921;52.034;20.650;2023-02-01T16:34:46;13.05;;;6.03;;
28766;SDS011;15921;52.034;20.650;2023-02-01T16:37:13;15.32;;;6.68;;
28766;SDS011;15921;52.034;20.650;2023-02-01T16:39:44;21.35;;;6.53;;
28766;SDS011;15921;52.034;20.650;2023-02-01T16:42:13;18.05;;;6.82;;
28766;SDS011;15921;52.034;20.650;2023-02-01T16:44:40;17.05;;;6.38;;
28766;SDS011;15921;52.034;20.650;2023-02-01T16:47:40;19.02;;;6.40;;
28766;SDS011;15921;52.034;20.650;2023-02-01T16:49:59;15.60;;;6.20;;
28766;SDS011;15921;52.034;20.650;2023-02-01T16:52:25;18.60;;;6.28;;
28766;SDS011;15921;52.034;20.650;2023-02-01T16:54:51;18.20;;;6.78;;
28766;SDS011;15921;52.034;20.650;2023-02-01T16:57:18;21.55;;;6.03;;
28766;SDS011;15921;52.034;20.650;2023-02-01T16:59:47;20.63;;;6.95;;
28766;SDS011;15921;52.034;20.650;2023-02-01T17:02:14;15.80;;;6.53;;
28766;SDS011;15921;52.034;20.650;2023-02-01T17:04:41;17.88;;;7.18;;
28766;SDS011;15921;52.034;20.650;2023-02-01T17:07:16;14.98;;;6.70;;
28766;SDS011;15921;52.034;20.650;2023-02-01T17:09:44;19.42;;;7.40;;
28766;SDS011;15921;52.034;20.650;2023-02-01T17:12:15;20.85;;;7.60;;
28766;SDS011;15921;52.034;20.650;2023-02-01T17:14:49;13.63;;;6.50;;
28766;SDS011;15921;52.034;20.650;2023-02-01T17:17:16;20.85;;;6.95;;
28766;SDS011;15921;52.034;20.650;2023-02-01T17:19:47;18.77;;;7.10;;
28766;SDS011;15921;52.034;20.650;2023-02-01T17:22:19;20.13;;;7.00;;
28766;SDS011;15921;52.034;20.650;2023-02-01T17:24:46;14.35;;;6.85;;
28766;SDS011;15921;52.034;20.650;2023-02-01T17:27:12;16.00;;;7.00;;
28766;SDS011;15921;52.034;20.650;2023-02-01T17:29:38;17.67;;;6.63;;
28766;SDS011;15921;52.034;20.650;2023-02-01T17:32:05;17.08;;;6.75;;
28766;SDS011;15921;52.034;20.650;2023-02-01T17:34:37;14.95;;;6.05;;
28766;SDS011;15921;52.034;20.650;2023-02-01T17:37:05;20.00;;;7.72;;